createdAt,value
2018-07-01T00:00:18.600Z,21.90
2018-07-01T00:02:46.894Z,21.90
2018-07-01T00:05:15.210Z,21.80
2018-07-01T00:07:43.511Z,21.80
2018-07-01T00:10:11.882Z,21.80
2018-07-01T00:12:40.209Z,21.80
2018-07-01T00:15:09.121Z,21.70
2018-07-01T00:17:37.665Z,21.70
2018-07-01T00:20:06.940Z,21.60
2018-07-01T00:22:35.444Z,21.50
2018-07-01T00:25:03.872Z,21.50
2018-07-01T00:27:32.171Z,21.50
2018-07-01T00:30:00.519Z,21.40
2018-07-01T00:32:28.837Z,21.40
2018-07-01T00:34:57.342Z,21.30
2018-07-01T00:37:25.695Z,21.30
2018-07-01T00:39:54.025Z,21.30
2018-07-01T00:42:22.739Z,21.30
2018-07-01T00:44:51.079Z,21.20
2018-07-01T00:47:19.403Z,21.20
2018-07-01T00:49:47.731Z,21.20
2018-07-01T00:52:16.065Z,21.10
2018-07-01T00:54:44.343Z,21.10
2018-07-01T00:57:12.608Z,21.10
2018-07-01T00:59:40.900Z,21.10
2018-07-01T01:02:09.232Z,21.10
2018-07-01T01:04:37.512Z,21.10
2018-07-01T01:07:05.852Z,21.00
2018-07-01T01:09:34.168Z,21.00
2018-07-01T01:12:02.709Z,21.00
2018-07-01T01:14:31.032Z,21.00
2018-07-01T01:16:59.340Z,20.90
2018-07-01T01:19:27.612Z,20.90
2018-07-01T01:21:55.930Z,20.90
2018-07-01T01:24:24.219Z,20.90
2018-07-01T01:26:52.849Z,20.90
2018-07-01T01:29:21.182Z,20.80
2018-07-01T01:31:49.408Z,20.70
2018-07-01T01:34:17.644Z,20.70
2018-07-01T01:36:46.113Z,20.70
2018-07-01T01:39:22.468Z,20.70
2018-07-01T01:41:57.781Z,20.60
2018-07-01T01:44:30.980Z,20.60
2018-07-01T01:47:05.477Z,20.60
2018-07-01T01:49:40.283Z,20.60
2018-07-01T01:53:19.939Z,20.50
2018-07-01T01:55:53.632Z,20.50
2018-07-01T01:58:27.296Z,20.40
2018-07-01T02:01:30.762Z,20.40
2018-07-01T02:04:02.536Z,20.40
2018-07-01T02:06:35.225Z,20.40
2018-07-01T02:09:05.692Z,20.40
2018-07-01T02:11:37.661Z,20.30
2018-07-01T02:14:09.672Z,20.30
2018-07-01T02:16:46.804Z,20.30
2018-07-01T02:19:15.100Z,20.30
2018-07-01T02:21:43.679Z,20.20
2018-07-01T02:24:16.232Z,20.20
2018-07-01T02:26:44.571Z,20.20
2018-07-01T02:29:12.895Z,20.20
2018-07-01T02:31:41.159Z,20.10
2018-07-01T02:34:09.526Z,20.10
2018-07-01T02:36:37.831Z,20.10
2018-07-01T02:39:07.791Z,20.10
2018-07-01T02:41:36.136Z,20.00
2018-07-01T02:44:04.414Z,20.00
2018-07-01T02:46:32.688Z,20.00
2018-07-01T02:49:01.109Z,19.90
2018-07-01T02:51:29.535Z,19.90
2018-07-01T02:53:57.938Z,19.90
2018-07-01T02:56:26.223Z,19.90
2018-07-01T02:58:54.593Z,19.90
2018-07-01T03:01:22.897Z,19.90
2018-07-01T03:03:51.156Z,19.80
2018-07-01T03:06:19.404Z,19.80
2018-07-01T03:08:47.696Z,19.70
2018-07-01T03:11:16.042Z,19.70
2018-07-01T03:13:44.338Z,19.70
2018-07-01T03:16:12.625Z,19.60
2018-07-01T03:18:40.879Z,19.60
2018-07-01T03:21:09.147Z,19.60
2018-07-01T03:23:37.475Z,19.50
2018-07-01T03:26:05.802Z,19.50
2018-07-01T03:28:34.111Z,19.50
2018-07-01T03:31:02.555Z,19.60
2018-07-01T03:33:30.846Z,19.50
2018-07-01T03:35:59.116Z,19.50
2018-07-01T03:38:27.817Z,19.50
2018-07-01T03:40:56.118Z,19.50
2018-07-01T03:43:24.421Z,19.50
2018-07-01T03:45:52.699Z,19.40
2018-07-01T03:48:21.158Z,19.40
2018-07-01T03:50:49.494Z,19.40
2018-07-01T03:53:17.794Z,19.40
2018-07-01T03:55:46.100Z,19.40
2018-07-01T03:58:14.406Z,19.40
2018-07-01T04:00:42.719Z,19.40
2018-07-01T04:03:11.013Z,19.40
2018-07-01T04:05:39.255Z,19.40
2018-07-01T04:08:07.539Z,19.40
2018-07-01T04:10:35.814Z,19.40
2018-07-01T04:13:04.196Z,19.30
2018-07-01T04:15:32.449Z,19.30
2018-07-01T04:18:00.753Z,19.30
2018-07-01T04:20:29.030Z,19.30
2018-07-01T04:22:57.353Z,19.30
2018-07-01T04:25:25.692Z,19.20
2018-07-01T04:27:53.980Z,19.30
2018-07-01T04:30:22.316Z,19.30
2018-07-01T04:32:50.637Z,19.30
2018-07-01T04:35:18.918Z,19.30
2018-07-01T04:40:15.314Z,19.30
2018-07-01T04:42:43.591Z,19.40
2018-07-01T04:45:11.931Z,19.30
2018-07-01T04:47:40.221Z,19.40
2018-07-01T04:50:08.524Z,19.40
2018-07-01T04:52:36.851Z,19.40
2018-07-01T04:55:05.174Z,19.40
2018-07-01T04:57:33.576Z,19.40
2018-07-01T05:00:01.889Z,19.40
2018-07-01T05:02:30.355Z,19.50
2018-07-01T05:04:58.619Z,19.50
2018-07-01T05:07:27.006Z,19.60
2018-07-01T05:09:55.249Z,19.60
2018-07-01T05:12:23.565Z,19.60
2018-07-01T05:14:51.946Z,19.60
2018-07-01T05:17:20.191Z,19.50
2018-07-01T05:19:48.531Z,19.50
2018-07-01T05:22:16.801Z,19.50
2018-07-01T05:24:45.045Z,19.60
2018-07-01T05:27:13.913Z,19.60
2018-07-01T05:29:42.147Z,19.60
2018-07-01T05:32:10.453Z,19.60
2018-07-01T05:34:38.734Z,19.70
2018-07-01T05:37:07.312Z,19.70
2018-07-01T05:39:35.669Z,19.70
2018-07-01T05:42:03.940Z,19.70
2018-07-01T05:44:32.286Z,19.70
2018-07-01T05:47:00.589Z,19.70
2018-07-01T05:49:28.960Z,19.80
2018-07-01T05:51:57.256Z,19.90
2018-07-01T05:54:25.467Z,20.00
2018-07-01T05:56:53.826Z,20.00
2018-07-01T05:59:22.547Z,20.00
2018-07-01T06:01:50.873Z,20.10
2018-07-01T06:04:19.232Z,20.10
2018-07-01T06:06:48.760Z,20.20
2018-07-01T06:09:17.484Z,20.30
2018-07-01T06:11:46.262Z,20.40
2018-07-01T06:19:10.527Z,20.40
2018-07-01T06:21:39.701Z,20.40
2018-07-01T06:24:07.976Z,20.40
2018-07-01T06:29:04.237Z,20.40
2018-07-01T06:31:32.585Z,20.40
2018-07-01T06:34:00.977Z,20.50
2018-07-01T06:36:29.256Z,20.50
2018-07-01T06:38:57.524Z,20.60
2018-07-01T06:41:25.839Z,20.70
2018-07-01T06:43:54.119Z,20.70
2018-07-01T06:46:22.363Z,20.70
2018-07-01T06:48:50.608Z,20.80
2018-07-01T06:51:18.895Z,20.90
2018-07-01T06:53:47.250Z,21.00
2018-07-01T06:56:15.527Z,21.10
2018-07-01T06:58:43.794Z,21.20
2018-07-01T07:01:12.086Z,21.30
2018-07-01T07:03:40.430Z,21.40
2018-07-01T07:06:08.730Z,21.40
2018-07-01T07:08:37.010Z,21.60
2018-07-01T07:11:05.240Z,21.70
2018-07-01T07:13:33.590Z,21.90
2018-07-01T07:18:29.862Z,22.10
2018-07-01T07:20:58.052Z,22.10
2018-07-01T07:23:26.342Z,22.10
2018-07-01T07:25:54.554Z,22.20
2018-07-01T07:28:22.770Z,22.30
2018-07-01T07:30:51.029Z,22.30
2018-07-01T07:33:19.319Z,22.40
2018-07-01T07:35:47.577Z,22.50
2018-07-01T07:38:15.805Z,22.50
2018-07-01T07:40:44.132Z,22.50
2018-07-01T07:43:14.459Z,22.60
2018-07-01T07:45:42.729Z,22.70
2018-07-01T07:48:11.019Z,22.70
2018-07-01T07:50:39.346Z,22.80
2018-07-01T07:53:07.603Z,22.80
2018-07-01T07:55:35.978Z,22.90
2018-07-01T07:58:04.231Z,22.90
2018-07-01T08:00:32.508Z,23.00
2018-07-01T08:03:00.767Z,23.10
2018-07-01T08:05:29.015Z,23.20
2018-07-01T08:07:57.362Z,23.30
2018-07-01T08:10:25.608Z,23.40
2018-07-01T08:12:53.847Z,23.50
2018-07-01T08:15:22.145Z,23.60
2018-07-01T08:17:50.423Z,23.70
2018-07-01T08:20:18.643Z,23.70
2018-07-01T08:22:46.917Z,23.80
2018-07-01T08:25:15.158Z,23.80
2018-07-01T08:27:43.411Z,23.80
2018-07-01T08:30:11.661Z,23.80
2018-07-01T08:32:39.988Z,23.80
2018-07-01T08:35:08.268Z,23.90
2018-07-01T08:37:36.528Z,24.00
2018-07-01T08:40:04.847Z,24.00
2018-07-01T08:42:36.342Z,24.00
2018-07-01T08:45:06.689Z,24.10
2018-07-01T08:47:35.575Z,24.30
2018-07-01T08:50:04.672Z,24.40
2018-07-01T08:52:33.275Z,24.50
2018-07-01T08:55:01.603Z,24.50
2018-07-01T08:57:29.856Z,24.50
2018-07-01T08:59:58.175Z,24.60
2018-07-01T09:02:26.429Z,24.70
2018-07-01T09:04:54.688Z,24.80
2018-07-01T09:07:22.944Z,24.90
2018-07-01T09:09:51.583Z,25.00
2018-07-01T09:12:19.872Z,25.10
2018-07-01T09:14:48.059Z,25.20
2018-07-01T09:17:16.352Z,25.30
2018-07-01T09:19:44.547Z,25.40
2018-07-01T09:22:13.262Z,25.50
2018-07-01T09:24:41.541Z,25.60
2018-07-01T09:27:09.831Z,25.80
2018-07-01T09:29:43.507Z,26.00
2018-07-01T09:32:11.777Z,26.30
2018-07-01T09:34:40.130Z,26.70
2018-07-01T09:37:08.358Z,27.10
2018-07-01T09:39:36.596Z,27.50
2018-07-01T09:42:04.899Z,27.80
2018-07-01T09:44:33.127Z,28.10
2018-07-01T09:47:01.437Z,28.40
2018-07-01T09:49:29.639Z,28.80
2018-07-01T09:51:57.932Z,29.20
2018-07-01T09:54:26.250Z,29.60
2018-07-01T09:56:55.098Z,29.90
2018-07-01T09:59:23.376Z,30.20
2018-07-01T10:01:51.652Z,30.70
2018-07-01T10:04:20.004Z,31.30
2018-07-01T10:06:48.348Z,31.40
2018-07-01T10:09:16.625Z,31.60
2018-07-01T10:11:44.956Z,31.60
2018-07-01T10:14:13.177Z,31.30
2018-07-01T10:16:41.425Z,30.80
2018-07-01T10:19:09.666Z,30.20
2018-07-01T10:21:38.214Z,29.70
2018-07-01T10:24:07.172Z,29.20
2018-07-01T10:26:35.542Z,28.80
2018-07-01T10:29:10.303Z,28.40
2018-07-01T10:31:39.230Z,28.00
2018-07-01T10:34:08.362Z,27.60
2018-07-01T10:36:36.667Z,27.30
2018-07-01T10:39:10.866Z,26.90
2018-07-01T10:41:39.187Z,26.70
2018-07-01T10:44:07.605Z,26.40
2018-07-01T10:46:36.774Z,26.40
2018-07-01T10:49:05.237Z,26.30
2018-07-01T10:51:33.638Z,26.30
2018-07-01T10:54:01.947Z,26.20
2018-07-01T10:56:30.344Z,26.10
2018-07-01T10:58:59.746Z,26.10
2018-07-01T11:01:28.067Z,26.00
2018-07-01T11:03:56.396Z,26.10
2018-07-01T11:06:24.807Z,26.00
2018-07-01T11:08:53.030Z,26.00
2018-07-01T11:13:49.576Z,25.80
2018-07-01T11:18:46.027Z,25.90
2018-07-01T11:21:14.320Z,25.90
2018-07-01T11:23:42.652Z,25.90
2018-07-01T11:26:10.979Z,25.90
2018-07-01T11:28:39.258Z,25.90
2018-07-01T11:31:07.544Z,25.90
2018-07-01T11:33:35.856Z,25.90
2018-07-01T11:36:04.480Z,25.90
2018-07-01T11:38:32.813Z,25.90
2018-07-01T11:41:01.128Z,25.90
2018-07-01T11:43:29.436Z,25.90
2018-07-01T11:45:57.781Z,25.80
2018-07-01T11:48:26.107Z,25.80
2018-07-01T11:50:54.362Z,25.80
2018-07-01T11:53:22.675Z,25.80
2018-07-01T11:55:50.963Z,25.80
2018-07-01T11:58:19.253Z,25.80
2018-07-01T12:03:16.398Z,25.90
2018-07-01T12:05:44.721Z,26.00
2018-07-01T12:08:13.040Z,26.00
2018-07-01T12:10:41.415Z,26.10
2018-07-01T12:13:09.780Z,26.10
2018-07-01T12:15:38.232Z,26.10
2018-07-01T12:18:06.517Z,26.10
2018-07-01T12:20:34.907Z,26.10
2018-07-01T12:23:03.344Z,26.20
2018-07-01T12:25:31.855Z,26.20
2018-07-01T12:28:00.384Z,26.30
2018-07-01T12:30:29.474Z,26.30
2018-07-01T12:32:57.795Z,26.30
2018-07-01T12:35:26.102Z,26.30
2018-07-01T12:37:54.482Z,26.40
2018-07-01T12:40:22.841Z,26.40
2018-07-01T12:42:51.256Z,26.40
2018-07-01T12:45:19.810Z,26.40
2018-07-01T12:47:48.219Z,26.50
2018-07-01T12:50:16.815Z,26.50
2018-07-01T12:52:45.203Z,26.50
2018-07-01T12:55:13.715Z,26.40
2018-07-01T12:57:42.217Z,26.40
2018-07-01T13:00:10.604Z,26.50
2018-07-01T13:02:39.041Z,26.50
2018-07-01T13:05:07.471Z,26.50
2018-07-01T13:07:36.044Z,26.50
2018-07-01T13:10:05.254Z,26.50
2018-07-01T13:12:34.219Z,26.60
2018-07-01T13:15:02.694Z,26.60
2018-07-01T13:17:31.072Z,26.70
2018-07-01T13:19:59.472Z,26.70
2018-07-01T13:24:56.075Z,26.70
2018-07-01T13:27:25.721Z,26.70
2018-07-01T13:29:54.149Z,26.70
2018-07-01T13:32:22.556Z,26.70
2018-07-01T13:34:50.945Z,26.70
2018-07-01T13:37:19.347Z,26.70
2018-07-01T13:39:47.653Z,26.70
2018-07-01T13:42:16.112Z,26.70
2018-07-01T13:44:44.502Z,26.70
2018-07-01T13:47:12.832Z,26.80
2018-07-01T13:49:41.241Z,26.80
2018-07-01T13:52:11.229Z,26.80
2018-07-01T13:54:39.591Z,26.90
2018-07-01T13:57:08.020Z,26.90
2018-07-01T13:59:36.430Z,27.00
2018-07-01T14:02:04.961Z,27.00
2018-07-01T14:04:33.488Z,27.10
2018-07-01T14:07:01.976Z,27.10
2018-07-01T14:09:30.624Z,27.10
2018-07-01T14:11:58.983Z,27.20
2018-07-01T14:19:24.171Z,27.20
2018-07-01T14:21:52.505Z,27.20
2018-07-01T14:24:21.130Z,27.30
2018-07-01T14:26:49.566Z,27.30
2018-07-01T14:29:18.039Z,27.30
2018-07-01T14:31:46.405Z,27.40
2018-07-01T14:34:14.804Z,27.40
2018-07-01T14:36:43.251Z,27.40
2018-07-01T14:39:13.313Z,27.40
2018-07-01T14:41:42.181Z,27.50
2018-07-01T14:44:10.605Z,27.60
2018-07-01T14:46:39.049Z,27.60
2018-07-01T14:49:07.645Z,27.60
2018-07-01T14:51:36.362Z,27.60
2018-07-01T14:54:04.953Z,27.60
2018-07-01T14:56:33.336Z,27.70
2018-07-01T14:59:01.935Z,27.70
2018-07-01T15:01:30.393Z,27.70
2018-07-01T15:03:58.805Z,27.70
2018-07-01T15:06:27.210Z,27.70
2018-07-01T15:08:55.632Z,27.60
2018-07-01T15:11:24.114Z,27.60
2018-07-01T15:13:52.444Z,27.60
2018-07-01T15:16:20.778Z,27.70
2018-07-01T15:18:49.298Z,27.70
2018-07-01T15:21:17.843Z,27.70
2018-07-01T15:23:46.194Z,27.70
2018-07-01T15:26:14.614Z,27.70
2018-07-01T15:28:43.212Z,27.80
2018-07-01T15:31:11.596Z,27.70
2018-07-01T15:33:40.220Z,27.70
2018-07-01T15:36:08.430Z,27.70
2018-07-01T15:41:04.927Z,27.70
2018-07-01T15:43:33.376Z,27.60
2018-07-01T15:46:01.789Z,27.60
2018-07-01T15:48:30.207Z,27.60
2018-07-01T15:50:58.730Z,27.60
2018-07-01T15:53:27.122Z,27.60
2018-07-01T15:55:55.617Z,27.60
2018-07-01T15:58:24.060Z,27.50
2018-07-01T16:00:52.455Z,27.50
2018-07-01T16:03:20.845Z,27.50
2018-07-01T16:05:49.174Z,27.60
2018-07-01T16:08:18.046Z,27.60
2018-07-01T16:10:46.393Z,27.60
2018-07-01T16:13:14.844Z,27.60
2018-07-01T16:15:43.625Z,27.60
2018-07-01T16:18:11.982Z,27.60
2018-07-01T16:20:40.410Z,27.50
2018-07-01T16:23:08.771Z,27.50
2018-07-01T16:25:42.628Z,27.50
2018-07-01T16:28:16.278Z,27.50
2018-07-01T16:30:44.957Z,27.50
2018-07-01T16:33:13.391Z,27.50
2018-07-01T16:35:42.113Z,27.50
2018-07-01T16:38:10.506Z,27.50
2018-07-01T16:40:38.939Z,27.50
2018-07-01T16:43:07.390Z,27.50
2018-07-01T16:45:35.771Z,27.50
2018-07-01T16:48:04.267Z,27.50
2018-07-01T16:50:32.681Z,27.50
2018-07-01T16:53:01.749Z,27.50
2018-07-01T16:55:30.103Z,27.50
2018-07-01T16:57:58.450Z,27.50
2018-07-01T17:00:26.752Z,27.50
2018-07-01T17:02:55.114Z,27.40
2018-07-01T17:05:23.590Z,27.40
2018-07-01T17:10:20.860Z,27.40
2018-07-01T17:12:49.192Z,27.40
2018-07-01T17:17:45.541Z,27.40
2018-07-01T17:20:13.941Z,27.30
2018-07-01T17:22:42.308Z,27.30
2018-07-01T17:25:10.625Z,27.30
2018-07-01T17:27:39.055Z,27.30
2018-07-01T17:30:07.369Z,27.30
2018-07-01T17:32:41.210Z,27.30
2018-07-01T17:35:09.532Z,27.40
2018-07-01T17:37:37.823Z,27.40
2018-07-01T17:42:34.828Z,27.30
2018-07-01T17:45:03.689Z,27.30
2018-07-01T17:47:32.032Z,27.20
2018-07-01T17:50:00.391Z,27.20
2018-07-01T17:52:28.824Z,27.20
2018-07-01T17:54:57.192Z,27.20
2018-07-01T17:57:25.576Z,27.20
2018-07-01T17:59:53.998Z,27.20
2018-07-01T18:02:22.258Z,27.20
2018-07-01T18:04:50.921Z,27.20
2018-07-01T18:07:19.608Z,27.10
2018-07-01T18:09:48.403Z,27.00
2018-07-01T18:12:17.097Z,27.00
2018-07-01T18:14:45.786Z,26.90
2018-07-01T18:17:14.476Z,26.90
2018-07-01T18:19:43.163Z,26.90
2018-07-01T18:22:21.718Z,26.80
2018-07-01T18:24:53.941Z,26.80
2018-07-01T18:27:10.130Z,26.80
2018-07-01T18:29:39.247Z,26.80
2018-07-01T18:32:08.131Z,26.70
2018-07-01T18:34:37.049Z,26.70
2018-07-01T18:37:05.743Z,26.70
2018-07-01T18:39:34.430Z,26.60
2018-07-01T18:42:03.122Z,26.60
2018-07-01T18:44:31.802Z,26.60
2018-07-01T18:47:00.608Z,26.50
2018-07-01T18:49:29.413Z,26.40
2018-07-01T18:51:58.087Z,26.40
2018-07-01T18:54:26.710Z,26.30
2018-07-01T18:56:55.360Z,26.30
2018-07-01T18:59:24.256Z,26.30
2018-07-01T19:01:53.046Z,26.20
2018-07-01T19:04:21.911Z,26.20
2018-07-01T19:06:50.631Z,26.10
2018-07-01T19:09:19.322Z,26.10
2018-07-01T19:11:48.134Z,26.00
2018-07-01T19:14:16.806Z,26.00
2018-07-01T19:16:45.596Z,26.00
2018-07-01T19:19:14.287Z,25.90
2018-07-01T19:21:43.081Z,25.80
2018-07-01T19:24:11.772Z,25.80
2018-07-01T19:26:40.461Z,25.70
2018-07-01T19:29:09.053Z,25.70
2018-07-01T19:31:38.236Z,25.60
2018-07-01T19:34:06.992Z,25.60
2018-07-01T19:36:35.634Z,25.50
2018-07-01T19:39:06.674Z,25.50
2018-07-01T19:41:36.200Z,25.40
2018-07-01T19:44:05.178Z,25.40
2018-07-01T19:46:33.976Z,25.40
2018-07-01T19:49:02.669Z,25.30
2018-07-01T19:51:31.432Z,25.30
2018-07-01T19:54:00.249Z,25.20
2018-07-01T19:56:29.046Z,25.20
2018-07-01T19:58:57.840Z,25.10
2018-07-01T20:01:26.625Z,25.00
2018-07-01T20:03:55.419Z,25.00
2018-07-01T20:06:24.119Z,24.90
2018-07-01T20:08:52.797Z,24.90
2018-07-01T20:11:21.487Z,24.90
2018-07-01T20:13:50.289Z,24.80
2018-07-01T20:16:18.962Z,24.80
2018-07-01T20:18:48.113Z,24.80
2018-07-01T20:21:16.407Z,24.70
2018-07-01T20:23:44.787Z,24.70
2018-07-01T20:26:13.239Z,24.60
2018-07-01T20:28:41.641Z,24.60
2018-07-01T20:31:10.019Z,24.60
2018-07-01T20:33:38.323Z,24.50
2018-07-01T20:36:06.820Z,24.50
2018-07-01T20:41:03.995Z,24.40
2018-07-01T20:43:32.405Z,24.40
2018-07-01T20:46:01.651Z,24.30
2018-07-01T20:48:29.972Z,24.30
2018-07-01T20:50:58.385Z,24.20
2018-07-01T20:53:26.745Z,24.20
2018-07-01T20:55:55.072Z,24.10
2018-07-01T20:58:23.367Z,24.10
2018-07-01T21:00:51.687Z,24.00
2018-07-01T21:03:20.873Z,24.00
2018-07-01T21:05:49.321Z,23.90
2018-07-01T21:08:17.549Z,23.90
2018-07-01T21:10:45.869Z,23.80
2018-07-01T21:13:14.226Z,23.80
2018-07-01T21:15:42.570Z,23.80
2018-07-01T21:18:10.895Z,23.70
2018-07-01T21:20:39.286Z,23.70
2018-07-01T21:23:08.122Z,23.70
2018-07-01T21:28:04.512Z,23.70
2018-07-01T21:30:32.902Z,23.70
2018-07-01T21:33:01.222Z,23.70
2018-07-01T21:35:29.521Z,23.70
2018-07-01T21:37:57.855Z,23.70
2018-07-01T21:40:26.237Z,23.60
2018-07-01T21:42:55.794Z,23.60
2018-07-01T21:45:24.149Z,23.60
2018-07-01T21:47:52.451Z,23.40
2018-07-01T21:50:20.693Z,23.40
2018-07-01T21:52:49.033Z,23.30
2018-07-01T21:55:18.444Z,23.20
2018-07-01T21:57:46.694Z,23.20
2018-07-01T22:00:17.324Z,23.10
2018-07-01T22:05:13.678Z,23.10
2018-07-01T22:07:41.951Z,23.00
2018-07-01T22:10:10.177Z,22.90
2018-07-01T22:12:50.581Z,22.90
2018-07-01T22:15:30.329Z,22.80
2018-07-01T22:17:58.615Z,22.80
2018-07-01T22:20:27.040Z,22.80
2018-07-01T22:22:55.409Z,22.70
2018-07-01T22:25:23.690Z,22.70
2018-07-01T22:27:52.068Z,22.60
2018-07-01T22:30:20.372Z,22.60
2018-07-01T22:32:48.691Z,22.60
2018-07-01T22:35:16.966Z,22.50
2018-07-01T22:37:45.276Z,22.50
2018-07-01T22:40:14.190Z,22.40
2018-07-01T22:45:10.646Z,22.40
2018-07-01T22:47:38.878Z,22.30
2018-07-01T22:50:07.310Z,22.30
2018-07-01T22:52:35.676Z,22.20
2018-07-01T22:55:03.966Z,22.20
2018-07-01T23:00:00.291Z,22.10
2018-07-01T23:02:49.896Z,22.00
2018-07-01T23:05:18.824Z,22.00
2018-07-01T23:07:47.112Z,22.00
2018-07-01T23:10:15.545Z,21.90
2018-07-01T23:12:44.061Z,21.80
2018-07-01T23:15:13.095Z,21.80
2018-07-01T23:17:41.791Z,21.70
2018-07-01T23:20:10.137Z,21.60
2018-07-01T23:22:38.703Z,21.60
2018-07-01T23:27:35.136Z,21.50
2018-07-01T23:30:03.383Z,21.40
2018-07-01T23:32:32.373Z,21.30
2018-07-01T23:35:00.767Z,21.30
2018-07-01T23:37:29.338Z,21.20
2018-07-01T23:39:57.969Z,21.20
2018-07-01T23:42:26.235Z,21.20
2018-07-01T23:44:54.618Z,21.10
2018-07-01T23:47:23.019Z,21.10
2018-07-01T23:49:51.416Z,21.10
2018-07-01T23:52:19.965Z,21.10
2018-07-01T23:54:48.739Z,21.10
2018-07-01T23:57:17.127Z,21.10
2018-07-01T23:59:45.486Z,21.10
